Time;durP1;ratioP1;P1;durP2;ratioP2;P2;SDS_P1;SDS_P2;PMS_P1;PMS_P2;Temp;Humidity;BMP_temperature;BMP_pressure;BME280_temperature;BME280_humidity;BME280_pressure;Samples;Min_cycle;Max_cycle;Signal;HPM_P1;HPM_P2
2022/03/25 00:01:42;;;;;;;258.43;77.83;;;5.30;99.90;;;;;;4798022;29;20478;-85
2022/03/25 00:04:08;;;;;;;396.63;93.43;;;5.30;99.90;;;;;;4809986;29;20053;-85
2022/03/25 00:06:35;;;;;;;398.90;92.80;;;5.30;99.90;;;;;;4813276;29;20394;-84
2022/03/25 00:09:01;;;;;;;348.10;90.43;;;5.20;99.90;;;;;;4828009;29;20440;-85
2022/03/25 00:11:27;;;;;;;336.90;92.23;;;5.20;99.90;;;;;;4827323;29;20046;-85
2022/03/25 00:13:53;;;;;;;476.87;112.00;;;5.20;99.90;;;;;;4812736;29;20041;-84
2022/03/25 00:16:18;;;;;;;307.27;86.47;;;5.10;99.90;;;;;;4811361;29;20061;-85
2022/03/25 00:18:44;;;;;;;211.47;76.53;;;5.10;99.90;;;;;;4794576;29;20137;-84
2022/03/25 00:21:10;;;;;;;181.63;76.27;;;5.10;99.90;;;;;;4824324;29;20046;-84
2022/03/25 00:23:36;;;;;;;177.77;79.20;;;5.00;99.90;;;;;;4824366;29;20085;-84
2022/03/25 00:26:02;;;;;;;171.17;75.97;;;5.10;99.90;;;;;;4801016;29;20042;-85
2022/03/25 00:28:28;;;;;;;144.40;69.00;;;5.00;99.90;;;;;;4805023;29;20047;-84
2022/03/25 00:30:54;;;;;;;150.97;68.27;;;5.00;99.90;;;;;;4800602;29;20056;-84
2022/03/25 00:33:20;;;;;;;158.53;71.03;;;4.90;99.90;;;;;;4840681;29;20394;-84
2022/03/25 00:35:46;;;;;;;166.50;73.43;;;4.90;99.90;;;;;;4828003;29;20042;-84
2022/03/25 00:38:12;;;;;;;154.30;69.93;;;4.90;99.90;;;;;;4809320;29;20495;-84
2022/03/25 00:40:38;;;;;;;173.20;78.13;;;4.90;99.90;;;;;;4799376;29;20169;-84
2022/03/25 00:43:06;;;;;;;181.63;77.20;;;5.00;99.90;;;;;;4834009;29;20050;-84
2022/03/25 00:45:33;;;;;;;164.40;73.33;;;4.90;99.90;;;;;;4811602;29;20144;-84
2022/03/25 00:47:59;;;;;;;175.80;76.97;;;4.90;99.90;;;;;;4812431;29;20156;-84
2022/03/25 00:50:26;;;;;;;162.47;73.70;;;4.90;99.90;;;;;;4823072;29;20458;-84
2022/03/25 00:52:52;;;;;;;141.13;66.40;;;4.90;99.90;;;;;;4812542;29;20246;-85
2022/03/25 00:55:19;;;;;;;160.23;72.93;;;4.90;99.90;;;;;;4809073;29;20054;-84
2022/03/25 00:57:45;;;;;;;172.97;72.90;;;4.80;99.90;;;;;;4821121;29;20072;-85
2022/03/25 01:00:11;;;;;;;143.00;67.67;;;4.70;99.90;;;;;;4842189;29;20042;-84
2022/03/25 01:02:38;;;;;;;154.97;70.10;;;4.70;99.90;;;;;;4811831;29;20514;-84
2022/03/25 01:05:04;;;;;;;157.77;68.53;;;4.70;99.90;;;;;;4811895;29;20404;-84
2022/03/25 01:07:30;;;;;;;184.57;75.57;;;4.70;99.90;;;;;;4842276;29;20129;-84
2022/03/25 01:09:56;;;;;;;166.53;74.60;;;4.70;99.90;;;;;;4794891;29;20459;-85
2022/03/25 01:12:22;;;;;;;178.07;77.67;;;4.70;99.90;;;;;;4812296;29;20042;-84
2022/03/25 01:14:48;;;;;;;178.50;77.70;;;4.70;99.90;;;;;;4796947;29;20506;-84
2022/03/25 01:17:16;;;;;;;169.97;74.50;;;4.70;99.90;;;;;;4827121;29;20050;-85
2022/03/25 01:19:43;;;;;;;191.20;80.97;;;4.60;99.90;;;;;;4827149;29;20042;-85
2022/03/25 01:22:09;;;;;;;163.07;74.53;;;4.70;99.90;;;;;;4811872;29;20114;-85
2022/03/25 01:24:35;;;;;;;180.87;78.77;;;4.70;99.90;;;;;;4826771;29;20041;-85
2022/03/25 01:27:01;;;;;;;194.50;82.77;;;4.70;99.90;;;;;;4826637;29;20514;-84
2022/03/25 01:29:27;;;;;;;195.57;81.13;;;4.70;99.90;;;;;;4826394;29;20042;-84
2022/03/25 01:31:55;;;;;;;183.90;76.13;;;4.70;99.90;;;;;;4811203;29;20217;-84
2022/03/25 01:34:21;;;;;;;168.07;73.47;;;4.70;99.90;;;;;;4824052;29;20043;-84
2022/03/25 01:36:47;;;;;;;170.60;74.23;;;4.70;99.90;;;;;;4796613;29;20044;-84
2022/03/25 01:39:13;;;;;;;164.67;72.27;;;4.60;99.90;;;;;;4805447;29;20551;-84
2022/03/25 01:41:39;;;;;;;178.80;79.67;;;4.60;99.90;;;;;;4805875;29;20053;-84
2022/03/25 01:44:08;;;;;;;184.30;80.87;;;4.60;99.90;;;;;;4811556;29;20046;-84
2022/03/25 01:46:34;;;;;;;188.53;78.77;;;4.60;99.90;;;;;;4826783;29;20037;-84
2022/03/25 01:49:00;;;;;;;189.90;77.03;;;4.60;99.90;;;;;;4826409;29;20053;-85
2022/03/25 01:51:32;;;;;;;191.30;79.20;;;4.60;99.90;;;;;;4841189;29;20042;-84
2022/03/25 01:54:10;;;;;;;188.70;78.63;;;4.60;99.90;;;;;;4824423;29;20046;-84
2022/03/25 01:56:35;;;;;;;182.07;76.93;;;4.60;99.90;;;;;;4807009;29;20402;-83
2022/03/25 01:59:01;;;;;;;190.20;78.47;;;4.50;99.90;;;;;;4811002;29;20061;-84
2022/03/25 02:01:27;;;;;;;200.10;80.23;;;4.60;99.90;;;;;;4826222;29;20124;-84
2022/03/25 02:03:53;;;;;;;183.97;81.07;;;4.50;99.90;;;;;;4780985;29;20093;-84
2022/03/25 02:06:19;;;;;;;188.97;77.40;;;4.60;99.90;;;;;;4806969;29;20101;-83
2022/03/25 02:08:45;;;;;;;204.70;80.13;;;4.50;99.90;;;;;;4843407;29;20046;-84
2022/03/25 02:11:11;;;;;;;198.90;81.77;;;4.50;99.90;;;;;;4807479;29;20057;-84
2022/03/25 02:13:37;;;;;;;195.63;82.57;;;4.60;99.90;;;;;;4811046;29;20057;-83
2022/03/25 02:16:03;;;;;;;194.00;83.50;;;4.60;99.90;;;;;;4810945;29;20490;-84
2022/03/25 02:18:28;;;;;;;197.33;80.90;;;4.50;99.90;;;;;;4811478;29;20085;-85
2022/03/25 02:20:54;;;;;;;185.33;81.00;;;4.50;99.90;;;;;;4820758;29;20121;-84
2022/03/25 02:23:22;;;;;;;200.87;81.40;;;4.60;99.90;;;;;;4819792;29;20053;-85
2022/03/25 02:25:51;;;;;;;195.97;81.70;;;4.50;99.90;;;;;;4840978;29;20261;-84
2022/03/25 02:28:17;;;;;;;195.20;80.10;;;4.50;99.90;;;;;;4824156;29;20050;-84
2022/03/25 02:30:43;;;;;;;203.30;84.67;;;4.50;99.90;;;;;;4810829;29;20053;-83
2022/03/25 02:33:09;;;;;;;184.17;75.83;;;4.50;99.90;;;;;;4810181;29;20046;-84
2022/03/25 02:35:44;;;;;;;191.67;78.57;;;4.50;99.90;;;;;;4825101;29;20038;-84
2022/03/25 02:38:19;;;;;;;204.83;84.47;;;4.50;99.90;;;;;;4825262;29;20056;-84
2022/03/25 02:40:45;;;;;;;200.17;81.93;;;4.50;99.90;;;;;;4824781;29;20125;-84
2022/03/25 02:43:11;;;;;;;207.97;84.73;;;4.50;99.90;;;;;;4810136;29;20124;-85
2022/03/25 02:45:38;;;;;;;192.90;80.70;;;4.50;99.90;;;;;;4812460;29;20504;-84
2022/03/25 02:48:05;;;;;;;185.17;79.33;;;4.50;99.90;;;;;;4825612;29;20436;-84
2022/03/25 02:50:31;;;;;;;196.97;80.77;;;4.50;99.90;;;;;;4809512;29;20103;-83
2022/03/25 02:52:58;;;;;;;192.57;80.37;;;4.50;99.90;;;;;;4840723;29;20056;-83
2022/03/25 02:55:24;;;;;;;196.07;80.67;;;4.40;99.90;;;;;;4810504;29;20113;-84
2022/03/25 02:57:54;;;;;;;189.27;79.97;;;4.50;99.90;;;;;;4828734;29;20129;-84
2022/03/25 03:00:20;;;;;;;205.60;85.50;;;4.50;99.90;;;;;;4825182;29;20040;-84
2022/03/25 03:02:47;;;;;;;200.80;84.07;;;4.40;99.90;;;;;;4818568;29;20082;-83
2022/03/25 03:05:14;;;;;;;188.00;77.80;;;4.40;99.90;;;;;;4826178;29;20517;-83
2022/03/25 03:07:40;;;;;;;172.87;76.57;;;4.40;99.90;;;;;;4825430;29;20456;-84
2022/03/25 03:10:08;;;;;;;196.70;81.10;;;4.40;99.90;;;;;;4810160;29;20041;-83
2022/03/25 03:12:35;;;;;;;192.00;80.77;;;4.40;99.90;;;;;;4825798;29;20050;-84
2022/03/25 03:15:02;;;;;;;180.33;76.53;;;4.40;99.90;;;;;;4830451;29;20118;-84
2022/03/25 03:17:28;;;;;;;179.63;76.67;;;4.40;99.90;;;;;;4810026;29;20049;-84
2022/03/25 03:19:54;;;;;;;202.90;83.03;;;4.40;99.90;;;;;;4809945;29;20049;-84
2022/03/25 03:22:21;;;;;;;166.70;73.30;;;4.40;99.90;;;;;;4810426;29;20038;-83
2022/03/25 03:24:46;;;;;;;190.47;75.93;;;4.40;99.90;;;;;;4818734;29;20039;-84
2022/03/25 03:27:12;;;;;;;182.70;77.33;;;4.30;99.90;;;;;;4786415;29;20190;-83
2022/03/25 03:29:39;;;;;;;196.63;78.70;;;4.30;99.90;;;;;;4825158;29;20097;-84
2022/03/25 03:32:05;;;;;;;181.50;75.23;;;4.30;99.90;;;;;;4813945;29;20059;-84
2022/03/25 03:34:32;;;;;;;185.83;78.30;;;4.30;99.90;;;;;;4792758;29;20056;-84
2022/03/25 03:36:58;;;;;;;187.47;76.27;;;4.30;99.90;;;;;;4809851;29;20046;-84
2022/03/25 03:39:23;;;;;;;172.57;74.37;;;4.30;99.90;;;;;;4809067;29;20057;-83
2022/03/25 03:41:49;;;;;;;147.73;66.07;;;4.30;99.90;;;;;;4806348;29;20046;-83
2022/03/25 03:44:15;;;;;;;146.27;66.83;;;4.20;99.90;;;;;;4794963;29;20042;-83
2022/03/25 03:46:41;;;;;;;137.30;63.17;;;4.10;99.90;;;;;;4780323;29;20110;-83
2022/03/25 03:49:07;;;;;;;113.43;56.33;;;4.10;99.90;;;;;;4809699;29;20102;-83
2022/03/25 03:51:33;;;;;;;166.37;48.40;;;4.00;99.90;;;;;;4822628;29;20046;-83
2022/03/25 03:54:00;;;;;;;171.47;45.67;;;3.80;99.90;;;;;;4825054;29;20045;-83
2022/03/25 03:56:26;;;;;;;161.30;44.60;;;3.60;99.90;;;;;;4824914;29;20058;-83
2022/03/25 03:58:52;;;;;;;101.30;42.67;;;3.40;99.90;;;;;;4802651;29;20078;-83
2022/03/25 04:01:17;;;;;;;91.27;41.80;;;3.20;99.90;;;;;;4808671;29;20069;-83
2022/03/25 04:03:43;;;;;;;132.67;42.03;;;3.10;99.90;;;;;;4822498;29;20058;-83
2022/03/25 04:06:09;;;;;;;93.87;38.40;;;3.00;99.90;;;;;;4792671;29;20057;-83
2022/03/25 04:08:35;;;;;;;100.43;36.60;;;2.90;99.90;;;;;;4799949;29;20046;-83
2022/03/25 04:11:02;;;;;;;62.93;36.53;;;2.80;99.90;;;;;;4792326;29;20118;-83
2022/03/25 04:13:28;;;;;;;62.50;36.87;;;2.60;99.90;;;;;;4813176;29;20054;-83
2022/03/25 04:15:54;;;;;;;58.90;35.13;;;2.50;99.90;;;;;;4799394;29;20054;-83
2022/03/25 04:18:20;;;;;;;59.87;34.33;;;2.50;99.90;;;;;;4767931;29;20060;-83
2022/03/25 04:20:46;;;;;;;60.33;35.37;;;2.40;99.90;;;;;;4780849;29;20122;-82
2022/03/25 04:23:12;;;;;;;63.17;35.93;;;2.30;99.90;;;;;;4815962;29;20154;-83
2022/03/25 04:25:38;;;;;;;64.73;36.83;;;2.20;99.90;;;;;;4771188;29;20107;-83
2022/03/25 04:28:04;;;;;;;65.37;36.67;;;2.20;99.90;;;;;;4800274;29;20721;-83
2022/03/25 04:30:35;;;;;;;100.37;50.20;;;2.10;99.90;;;;;;4794483;29;20073;-83
2022/03/25 04:33:02;;;;;;;125.35;57.22;;;2.20;99.90;;;;;;4824204;29;20287;-83
2022/03/25 04:35:28;;;;;;;156.07;67.53;;;2.20;99.90;;;;;;4795828;29;20491;-83
2022/03/25 04:37:55;;;;;;;173.70;70.20;;;2.40;99.90;;;;;;4776643;29;20316;-84
2022/03/25 04:40:23;;;;;;;131.43;58.90;;;2.60;99.90;;;;;;4811137;29;20674;-83
2022/03/25 04:42:50;;;;;;;159.90;66.27;;;2.70;99.90;;;;;;4817409;29;20046;-83
2022/03/25 04:45:17;;;;;;;192.43;75.10;;;2.80;99.90;;;;;;4809022;29;20352;-84
2022/03/25 04:47:43;;;;;;;204.73;76.80;;;2.90;99.90;;;;;;4806199;29;20290;-83
2022/03/25 04:50:10;;;;;;;189.27;72.43;;;3.10;99.90;;;;;;4778190;29;20054;-83
2022/03/25 04:52:36;;;;;;;203.60;77.63;;;3.20;99.90;;;;;;4791417;29;20288;-83
2022/03/25 04:55:02;;;;;;;158.47;67.37;;;3.30;99.90;;;;;;4806503;29;20640;-83
2022/03/25 04:57:28;;;;;;;158.07;66.93;;;3.30;99.90;;;;;;4804945;29;20054;-83
2022/03/25 04:59:55;;;;;;;146.00;64.50;;;3.30;99.90;;;;;;4834174;29;20105;-83
2022/03/25 05:02:22;;;;;;;154.33;67.03;;;3.40;99.90;;;;;;4801496;29;20495;-83
2022/03/25 05:04:47;;;;;;;161.93;66.13;;;3.30;99.90;;;;;;4841390;29;20157;-84
2022/03/25 05:07:17;;;;;;;154.93;64.67;;;3.40;99.90;;;;;;4797018;29;20878;-83
2022/03/25 05:09:44;;;;;;;135.00;59.00;;;3.40;99.90;;;;;;4811101;29;20712;-83
2022/03/25 05:12:11;;;;;;;144.00;64.13;;;3.40;99.90;;;;;;4824423;29;20296;-83
2022/03/25 05:14:37;;;;;;;140.70;62.10;;;3.40;99.90;;;;;;4812051;29;20095;-84
2022/03/25 05:17:04;;;;;;;135.60;59.83;;;3.40;99.90;;;;;;4796583;29;20371;-83
2022/03/25 05:19:29;;;;;;;139.90;62.63;;;3.40;99.90;;;;;;4818978;29;20056;-83
2022/03/25 05:21:55;;;;;;;144.00;62.00;;;3.40;99.90;;;;;;4811723;29;20041;-83
2022/03/25 05:24:21;;;;;;;126.03;59.13;;;3.50;99.90;;;;;;4806124;29;20077;-83
2022/03/25 05:26:47;;;;;;;127.57;57.17;;;3.50;99.90;;;;;;4803955;29;20133;-82
2022/03/25 05:29:14;;;;;;;128.47;56.20;;;3.60;99.90;;;;;;4812439;29;20067;-83
2022/03/25 05:31:39;;;;;;;131.57;59.40;;;3.60;99.90;;;;;;4809478;29;20042;-83
2022/03/25 05:34:06;;;;;;;122.60;56.43;;;3.70;99.90;;;;;;4823258;29;20130;-84
2022/03/25 05:36:35;;;;;;;123.97;54.90;;;3.70;99.90;;;;;;4826396;29;20541;-84
2022/03/25 05:39:02;;;;;;;124.33;54.37;;;3.80;99.90;;;;;;4824674;29;20729;-84
2022/03/25 05:41:29;;;;;;;117.47;55.33;;;3.70;99.90;;;;;;4826278;29;20046;-84
2022/03/25 05:43:55;;;;;;;117.93;53.43;;;3.70;99.90;;;;;;4810683;29;20491;-84
2022/03/25 05:46:21;;;;;;;115.13;54.53;;;3.80;99.90;;;;;;4826926;29;20282;-83
2022/03/25 05:48:47;;;;;;;120.03;53.93;;;3.80;99.90;;;;;;4823384;29;20121;-84
2022/03/25 05:51:13;;;;;;;114.87;52.13;;;3.90;99.90;;;;;;4808151;29;20042;-83
2022/03/25 05:53:40;;;;;;;111.13;51.00;;;4.00;99.90;;;;;;4826395;29;20114;-83
2022/03/25 05:56:07;;;;;;;117.20;55.30;;;3.90;99.90;;;;;;4826304;29;20054;-84
2022/03/25 05:58:36;;;;;;;107.83;51.57;;;4.00;99.90;;;;;;4823582;29;20054;-84
2022/03/25 06:01:04;;;;;;;114.00;52.77;;;4.00;99.90;;;;;;4822444;29;20283;-84
2022/03/25 06:03:32;;;;;;;107.97;51.93;;;4.00;99.90;;;;;;4811483;29;20045;-83
2022/03/25 06:06:03;;;;;;;114.37;52.27;;;4.00;99.90;;;;;;4826947;29;20057;-84
2022/03/25 06:08:30;;;;;;;111.82;50.67;;;4.00;99.90;;;;;;4824576;29;20045;-83
2022/03/25 06:10:56;;;;;;;105.77;50.27;;;4.10;99.90;;;;;;4818741;29;20053;-83
2022/03/25 06:13:23;;;;;;;111.40;49.97;;;4.10;99.90;;;;;;4820055;29;20385;-84
2022/03/25 06:15:49;;;;;;;106.73;48.60;;;4.20;99.90;;;;;;4823908;29;20084;-83
2022/03/25 06:18:16;;;;;;;106.37;50.30;;;4.20;99.90;;;;;;4809123;29;20050;-84
2022/03/25 06:20:42;;;;;;;100.00;49.20;;;4.20;99.90;;;;;;4826470;29;20130;-83
2022/03/25 06:23:08;;;;;;;104.27;49.47;;;4.40;99.90;;;;;;4837067;29;20087;-84
2022/03/25 06:25:34;;;;;;;107.70;46.80;;;4.40;99.90;;;;;;4826693;29;20038;-84
2022/03/25 06:28:02;;;;;;;107.20;47.53;;;4.50;99.90;;;;;;4823218;29;20140;-84
2022/03/25 06:30:36;;;;;;;101.63;46.53;;;4.40;99.90;;;;;;4824049;29;20048;-83
2022/03/25 06:33:10;;;;;;;95.30;45.77;;;4.50;99.90;;;;;;4823672;29;20049;-84
2022/03/25 06:35:36;;;;;;;102.30;48.70;;;4.60;99.90;;;;;;4815227;29;20579;-82
2022/03/25 06:38:03;;;;;;;104.87;46.23;;;4.60;99.90;;;;;;4807609;29;20043;-83
2022/03/25 06:40:29;;;;;;;97.30;45.83;;;4.70;99.90;;;;;;4821858;29;20062;-83
2022/03/25 06:42:57;;;;;;;101.83;46.73;;;4.70;99.90;;;;;;4809510;29;20049;-82
2022/03/25 06:45:24;;;;;;;96.13;46.43;;;4.70;99.90;;;;;;4808420;29;20037;-83
2022/03/25 06:47:51;;;;;;;96.90;45.27;;;4.70;99.90;;;;;;4811120;29;20084;-83
2022/03/25 06:50:18;;;;;;;89.77;46.27;;;4.70;99.90;;;;;;4823184;29;20046;-83
2022/03/25 06:52:45;;;;;;;94.63;47.80;;;4.70;99.90;;;;;;4811085;29;20102;-84
2022/03/25 06:55:12;;;;;;;92.80;44.83;;;4.80;99.90;;;;;;4811071;29;20054;-83
2022/03/25 06:57:39;;;;;;;90.07;43.57;;;4.80;99.90;;;;;;4826312;29;20046;-83
2022/03/25 07:00:05;;;;;;;91.23;44.27;;;4.90;99.90;;;;;;4810827;29;20102;-83
2022/03/25 07:02:31;;;;;;;90.73;44.27;;;4.90;99.90;;;;;;4812856;29;20502;-83
2022/03/25 07:04:57;;;;;;;88.33;43.23;;;5.00;99.90;;;;;;4795731;29;20110;-83
2022/03/25 07:07:26;;;;;;;96.03;45.33;;;5.10;99.90;;;;;;4826131;29;20136;-82
2022/03/25 07:09:55;;;;;;;93.47;46.37;;;5.10;99.90;;;;;;4810404;29;20483;-82
2022/03/25 07:12:21;;;;;;;88.93;44.07;;;5.20;99.90;;;;;;4809775;29;20498;-82
2022/03/25 07:14:47;;;;;;;89.00;42.63;;;5.30;99.90;;;;;;4809743;29;20128;-83
2022/03/25 07:17:13;;;;;;;95.27;43.63;;;5.30;99.90;;;;;;4825153;29;20056;-83
2022/03/25 07:19:38;;;;;;;86.40;42.87;;;5.40;99.90;;;;;;4810107;29;20047;-83
2022/03/25 07:22:04;;;;;;;85.63;43.07;;;5.50;99.90;;;;;;4821831;29;20782;-83
2022/03/25 07:24:30;;;;;;;91.73;43.93;;;5.60;99.90;;;;;;4813823;29;20132;-82
2022/03/25 07:26:56;;;;;;;88.90;41.73;;;5.70;99.90;;;;;;4795384;29;20479;-83
2022/03/25 07:29:21;;;;;;;87.63;44.03;;;5.80;99.90;;;;;;4810002;29;20037;-83
2022/03/25 07:31:47;;;;;;;85.10;41.43;;;5.90;99.90;;;;;;4799832;29;20043;-83
2022/03/25 07:34:13;;;;;;;95.67;46.13;;;6.00;99.90;;;;;;4823941;29;20038;-82
2022/03/25 07:36:39;;;;;;;85.97;41.37;;;6.20;99.90;;;;;;4824716;29;20521;-82
2022/03/25 07:39:05;;;;;;;86.53;42.20;;;6.30;99.90;;;;;;4841463;29;20086;-82
2022/03/25 07:41:31;;;;;;;82.93;42.53;;;6.40;99.90;;;;;;4841538;29;20177;-84
2022/03/25 07:43:56;;;;;;;88.23;41.87;;;6.50;99.90;;;;;;4824906;29;20079;-83
2022/03/25 07:46:25;;;;;;;78.60;41.17;;;6.60;99.90;;;;;;4807671;29;20399;-83
2022/03/25 07:48:51;;;;;;;84.43;40.10;;;6.70;99.90;;;;;;4806997;29;20054;-83
2022/03/25 07:51:17;;;;;;;79.13;38.97;;;6.80;99.90;;;;;;4812623;29;20453;-83
2022/03/25 07:53:43;;;;;;;79.33;39.50;;;6.90;99.90;;;;;;4807206;29;20042;-83
2022/03/25 07:56:09;;;;;;;81.97;41.13;;;7.00;99.90;;;;;;4802905;29;20050;-83
2022/03/25 07:58:35;;;;;;;79.93;40.77;;;7.00;99.90;;;;;;4807274;29;20049;-84
2022/03/25 08:01:01;;;;;;;75.67;38.23;;;7.20;99.90;;;;;;4792359;29;20191;-83
2022/03/25 08:03:27;;;;;;;73.00;37.30;;;7.30;99.90;;;;;;4807900;29;20057;-83
2022/03/25 08:05:54;;;;;;;70.00;37.33;;;7.40;99.90;;;;;;4805928;29;20055;-82
2022/03/25 08:08:20;;;;;;;67.33;35.80;;;7.50;99.90;;;;;;4822489;29;20418;-82
2022/03/25 08:10:47;;;;;;;72.50;36.50;;;7.60;99.90;;;;;;4809505;29;20145;-82
2022/03/25 08:13:14;;;;;;;71.37;38.57;;;7.70;99.90;;;;;;4812424;29;20738;-82
2022/03/25 08:15:40;;;;;;;65.33;34.00;;;7.90;99.90;;;;;;4813118;29;20448;-82
2022/03/25 08:18:10;;;;;;;65.07;34.87;;;7.90;99.90;;;;;;4812856;29;20110;-83
2022/03/25 08:20:40;;;;;;;62.80;33.27;;;8.00;99.90;;;;;;4813107;29;20042;-84
2022/03/25 08:23:08;;;;;;;62.63;34.10;;;8.10;99.90;;;;;;4811508;29;20830;-82
2022/03/25 08:28:19;;;;;;;61.67;31.50;;;8.30;99.90;;;;;;4826571;29;20433;-82
2022/03/25 08:30:46;;;;;;;57.63;31.30;;;8.50;99.90;;;;;;4796466;29;20056;-81
2022/03/25 08:33:13;;;;;;;59.00;31.47;;;8.50;99.90;;;;;;4818006;29;20065;-82
2022/03/25 08:35:40;;;;;;;53.93;28.77;;;8.60;99.90;;;;;;4807014;29;20087;-83
2022/03/25 08:38:08;;;;;;;59.43;30.50;;;8.80;99.90;;;;;;4824734;29;20475;-83
2022/03/25 08:40:35;;;;;;;57.27;30.83;;;8.90;99.90;;;;;;4812459;29;20186;-83
2022/03/25 08:43:05;;;;;;;57.30;29.50;;;9.00;99.90;;;;;;4812635;29;20049;-83
2022/03/25 08:45:31;;;;;;;51.40;27.87;;;9.20;99.90;;;;;;4827956;29;20041;-84
2022/03/25 08:47:57;;;;;;;56.53;29.77;;;9.30;99.90;;;;;;4798066;29;20050;-82
2022/03/25 08:50:24;;;;;;;56.23;30.27;;;9.50;99.90;;;;;;4797104;29;20046;-84
2022/03/25 08:52:53;;;;;;;51.47;27.63;;;9.60;99.90;;;;;;4807710;29;20401;-84
2022/03/25 08:55:20;;;;;;;51.30;27.00;;;9.80;99.90;;;;;;4827205;29;20129;-83
2022/03/25 08:57:47;;;;;;;53.43;28.00;;;9.90;99.90;;;;;;4812057;29;20046;-84
2022/03/25 09:00:15;;;;;;;50.20;26.93;;;10.00;99.90;;;;;;4826902;29;20080;-84
2022/03/25 09:02:44;;;;;;;51.00;28.47;;;10.20;99.90;;;;;;4827218;29;20046;-84
2022/03/25 09:05:11;;;;;;;49.50;28.33;;;10.30;99.90;;;;;;4813925;29;20063;-83
2022/03/25 09:07:38;;;;;;;47.50;25.57;;;10.50;99.90;;;;;;4798373;29;20073;-84
2022/03/25 09:10:05;;;;;;;49.10;26.83;;;10.60;99.90;;;;;;4806709;29;20072;-84
2022/03/25 09:12:32;;;;;;;50.73;29.67;;;10.70;99.90;;;;;;4826149;29;20050;-84
2022/03/25 09:14:58;;;;;;;50.87;25.07;;;10.80;99.90;;;;;;4827040;29;20125;-83
2022/03/25 09:17:25;;;;;;;48.33;27.60;;;11.00;99.90;;;;;;4797262;29;20524;-85
2022/03/25 09:19:51;;;;;;;47.07;26.03;;;11.10;99.90;;;;;;4812066;29;20582;-85
2022/03/25 09:22:16;;;;;;;50.77;26.60;;;11.20;99.90;;;;;;4803089;29;20049;-83
2022/03/25 09:24:42;;;;;;;50.30;26.17;;;11.30;99.90;;;;;;4793909;29;20129;-84
2022/03/25 09:27:08;;;;;;;43.37;25.80;;;11.30;99.90;;;;;;4823962;29;20053;-84
2022/03/25 09:29:34;;;;;;;41.90;25.97;;;11.30;99.90;;;;;;4829443;29;20121;-83
2022/03/25 09:31:59;;;;;;;42.33;24.67;;;11.40;99.90;;;;;;4811311;29;20483;-84
2022/03/25 09:37:09;;;;;;;43.70;23.57;;;11.60;99.90;;;;;;4811957;29;20053;-83
2022/03/25 09:39:35;;;;;;;45.00;23.80;;;11.70;99.90;;;;;;4811358;29;20042;-83
2022/03/25 09:42:01;;;;;;;41.63;23.00;;;11.80;99.90;;;;;;4825902;29;20422;-84
2022/03/25 09:44:27;;;;;;;41.40;23.63;;;11.90;99.90;;;;;;4809766;29;20052;-84
2022/03/25 09:46:52;;;;;;;47.43;24.47;;;11.90;99.90;;;;;;4811338;29;20041;-83
2022/03/25 09:49:18;;;;;;;42.70;22.77;;;12.00;99.90;;;;;;4817989;29;20472;-84
2022/03/25 09:51:45;;;;;;;43.47;23.53;;;12.10;99.90;;;;;;4811439;29;20102;-83
2022/03/25 09:54:14;;;;;;;42.13;22.07;;;12.20;99.90;;;;;;4789710;29;20053;-85
2022/03/25 09:56:41;;;;;;;43.80;22.93;;;12.30;99.90;;;;;;4803472;29;20056;-84
2022/03/25 09:59:07;;;;;;;39.90;20.83;;;12.40;99.90;;;;;;4827869;29;20130;-84
2022/03/25 10:01:34;;;;;;;40.03;21.07;;;12.50;99.90;;;;;;4816618;29;20034;-87
2022/03/25 10:04:00;;;;;;;38.50;20.77;;;12.50;99.90;;;;;;4797202;29;20066;-83
2022/03/25 10:06:26;;;;;;;41.07;20.83;;;12.60;99.90;;;;;;4810891;29;20049;-83
2022/03/25 10:09:01;;;;;;;40.47;20.40;;;12.70;99.90;;;;;;4803074;29;20107;-84
2022/03/25 10:11:32;;;;;;;40.83;22.03;;;12.80;91.90;;;;;;4819877;29;20042;-83
2022/03/25 10:14:31;;;;;;;35.20;19.83;;;12.90;98.80;;;;;;4797150;29;20041;-83
2022/03/25 10:16:59;;;;;;;35.97;20.60;;;13.00;92.50;;;;;;4805130;29;20385;-83
2022/03/25 10:19:25;;;;;;;36.87;20.67;;;13.00;92.80;;;;;;4796138;29;20065;-84
2022/03/25 10:21:57;;;;;;;39.07;18.90;;;13.20;94.30;;;;;;4790762;29;20050;-84
2022/03/25 10:24:40;;;;;;;35.78;19.02;;;13.30;92.10;;;;;;4810581;29;20033;-84
2022/03/25 10:27:07;;;;;;;36.10;19.53;;;13.30;86.20;;;;;;4800353;29;20038;-83
2022/03/25 10:29:35;;;;;;;33.97;20.03;;;13.50;86.70;;;;;;4810130;29;20037;-83
2022/03/25 10:32:11;;;;;;;37.90;19.70;;;13.40;83.80;;;;;;4811238;29;20521;-83
2022/03/25 10:34:39;;;;;;;30.87;17.23;;;13.50;78.00;;;;;;4811024;29;20124;-83
2022/03/25 10:37:07;;;;;;;38.80;19.60;;;13.50;79.10;;;;;;4825893;29;20042;-83
2022/03/25 10:39:33;;;;;;;27.60;16.50;;;13.70;81.30;;;;;;4810400;29;21253;-85
2022/03/25 10:42:04;;;;;;;35.07;18.33;;;13.80;79.40;;;;;;4826056;29;20046;-84
2022/03/25 10:44:41;;;;;;;34.90;19.08;;;13.90;78.20;;;;;;4841044;29;20045;-85
2022/03/25 10:47:16;;;;;;;34.67;19.27;;;14.10;78.30;;;;;;4825954;29;20178;-83
2022/03/25 10:49:47;;;;;;;35.33;18.80;;;14.20;78.90;;;;;;4807553;29;20046;-83
2022/03/25 10:52:30;;;;;;;33.93;18.37;;;14.30;78.40;;;;;;4815081;29;20483;-82
2022/03/25 10:55:15;;;;;;;36.30;19.00;;;14.40;75.60;;;;;;4820221;29;20039;-84
2022/03/25 10:57:55;;;;;;;34.60;18.00;;;14.50;69.50;;;;;;4824055;29;20136;-87
2022/03/25 11:00:22;;;;;;;32.50;18.77;;;14.50;71.30;;;;;;4841124;29;20129;-84
2022/03/25 11:02:48;;;;;;;36.83;19.43;;;14.60;74.40;;;;;;4825498;29;20046;-82
2022/03/25 11:05:14;;;;;;;35.57;18.70;;;14.70;74.30;;;;;;4806933;29;20141;-84
2022/03/25 11:07:47;;;;;;;35.10;18.67;;;14.80;72.80;;;;;;4806781;29;20506;-84
2022/03/25 11:10:15;;;;;;;33.80;18.00;;;14.80;72.60;;;;;;4825296;29;20068;-84
2022/03/25 11:12:46;;;;;;;36.47;19.77;;;14.90;71.00;;;;;;4810863;29;20068;-84
2022/03/25 11:15:20;;;;;;;29.55;18.90;;;14.90;70.60;;;;;;4824450;29;20037;-83
2022/03/25 11:17:47;;;;;;;35.37;19.97;;;15.10;70.20;;;;;;4823666;29;20054;-83
2022/03/25 11:20:15;;;;;;;38.73;19.97;;;15.10;70.40;;;;;;4825270;29;20128;-84
2022/03/25 11:22:49;;;;;;;34.80;19.20;;;15.30;70.60;;;;;;4799064;29;20054;-85
2022/03/25 11:25:21;;;;;;;36.40;19.07;;;15.30;67.80;;;;;;4836388;29;20114;-84
2022/03/25 11:27:57;;;;;;;39.25;20.52;;;15.40;68.00;;;;;;4809015;29;20054;-85
2022/03/25 11:30:23;;;;;;;33.30;19.70;;;15.40;65.30;;;;;;4822968;29;20452;-85
2022/03/25 11:33:06;;;;;;;35.63;19.73;;;15.40;66.50;;;;;;4821864;29;20046;-85
2022/03/25 11:35:42;;;;;;;34.30;20.07;;;15.40;65.80;;;;;;4795450;29;20152;-87
2022/03/25 11:38:14;;;;;;;40.67;20.13;;;15.40;65.80;;;;;;4806573;29;20078;-84
2022/03/25 11:40:45;;;;;;;42.88;22.23;;;15.40;65.00;;;;;;4796414;29;20078;-84
2022/03/25 11:43:28;;;;;;;45.17;22.20;;;15.40;64.20;;;;;;4828000;29;20129;-83
2022/03/25 11:45:59;;;;;;;42.05;22.00;;;15.50;64.10;;;;;;4810430;29;20046;-85
2022/03/25 11:48:28;;;;;;;39.00;21.60;;;15.60;63.80;;;;;;4825129;29;20042;-85
2022/03/25 11:50:55;;;;;;;37.65;21.42;;;15.60;63.80;;;;;;4828663;29;20053;-85
2022/03/25 11:53:22;;;;;;;36.83;21.48;;;15.60;63.90;;;;;;4813822;29;20702;-84
2022/03/25 11:55:55;;;;;;;39.17;20.20;;;15.70;64.40;;;;;;4826700;29;20054;-85
2022/03/25 11:58:22;;;;;;;40.03;19.38;;;15.70;63.20;;;;;;4827771;29;21752;-85
2022/03/25 12:00:51;;;;;;;35.97;20.60;;;15.80;63.10;;;;;;4813119;29;20120;-85
2022/03/25 12:03:17;;;;;;;39.47;21.02;;;16.00;63.60;;;;;;4807337;29;20045;-85
2022/03/25 12:06:01;;;;;;;43.00;23.67;;;16.10;62.20;;;;;;4812017;29;20096;-86
2022/03/25 12:08:35;;;;;;;36.55;20.17;;;16.10;60.50;;;;;;4827787;29;20483;-85
2022/03/25 12:11:06;;;;;;;38.05;21.10;;;16.10;61.90;;;;;;4812855;29;20045;-83
2022/03/25 12:13:51;;;;;;;41.03;22.63;;;16.10;61.30;;;;;;4826848;29;20522;-83
2022/03/25 12:16:48;;;;;;;40.38;21.85;;;16.10;60.10;;;;;;4813499;29;20052;-84
2022/03/25 12:19:26;;;;;;;36.28;20.33;;;16.10;60.70;;;;;;4813719;29;20046;-84
2022/03/25 12:22:03;;;;;;;35.35;20.75;;;16.10;60.00;;;;;;4824727;29;20058;-83
2022/03/25 12:24:30;;;;;;;37.08;19.77;;;16.00;59.30;;;;;;4826689;29;20070;-86
2022/03/25 12:27:09;;;;;;;32.53;19.30;;;16.10;60.60;;;;;;4826912;29;20054;-85
2022/03/25 12:29:41;;;;;;;34.20;18.30;;;16.10;59.40;;;;;;4794748;29;20046;-84
2022/03/25 12:32:09;;;;;;;36.47;18.13;;;16.20;59.70;;;;;;4824259;29;20395;-85
2022/03/25 12:34:41;;;;;;;30.60;17.55;;;16.20;59.60;;;;;;4820914;29;20105;-84
2022/03/25 12:37:10;;;;;;;31.70;17.20;;;16.30;59.10;;;;;;4809512;29;20131;-84